SVHT weather

Hato Altamira de Monagas Airport
Monagas, Venezuela

Public forecast

Using degrees Celsius for public forecast. Weather courtesy of forecast.io.

Closest aviation weather report (METAR) to Hato Altamira de Monagas Airport

Report is more than 6 hours old.

Closest report is Maturín Airport, 23.6 nm (43.7 km) N. Retrieved 2018/12/04 12:00 UTC (1 year ago):

SVMT 041200Z /////KT 9999 SCT010 BKN300 23/22 Q1011

Closest aviation forecast (TAF) to Hato Altamira de Monagas Airport

Closest forecast is General José Antonio Anzoategui International Airport, 105.2 nm (194.8 km) WNW. Retrieved 2020/02/28 18:28 UTC (3 hours ago):

TAF SVBC 281600Z 2818/2918 11003KT 9999 FEW016 TX32/19Z TN24/09Z BECMG 2818/2822 14004KT 9999 FEW016 SCT100